Terminal Aerodrome Forecast
Issued by NWS

Home | Current Version | Previous Version | Text Only | Print | Product List | Glossary On
Versions: 1 2 3 4 5 6 7 8 9 10 11 12 13 14 15 16 17
670
FTUS41 KAKQ 272320
TAFPHF
TAF
KPHF 272320Z 2800/2824 21009KT P6SM SKC
     FM280400 20008KT P6SM VCSH BKN100
     FM280600 22009KT P6SM VCSH BKN050
     FM281000 21007KT P6SM VCSH BKN015
     FM281500 25006KT P6SM BKN020
     FM281800 18005KT P6SM BKN050=

USA.gov is the U.S. government's official web portal to all federal, state and local government web resources and services.